Time;durP1;ratioP1;P1;durP2;ratioP2;P2;SDS_P1;SDS_P2;PMS_P1;PMS_P2;Temp;Humidity;BMP_temperature;BMP_pressure;BME280_temperature;BME280_humidity;BME280_pressure;Samples;Min_cycle;Max_cycle;Signal;HPM_P1;HPM_P2
2023/06/09 00:00:27;;;;;;;;;;;15.70;99.90;;;;;;20850531;28;19913;-76
2023/06/09 00:10:28;;;;;;;;;;;15.00;99.90;;;;;;20847523;28;20481;-76
2023/06/09 00:20:33;;;;;;;;;;;15.20;99.90;;;;;;20843425;28;19913;-76
2023/06/09 00:30:34;;;;;;;;;;;15.50;99.90;;;;;;20836701;28;19917;-76
2023/06/09 00:40:35;;;;;;;;;;;15.40;99.90;;;;;;20838718;28;19924;-75
2023/06/09 00:50:36;;;;;;;;;;;15.00;99.90;;;;;;20834483;28;19921;-76
2023/06/09 01:00:39;;;;;;;;;;;14.70;99.90;;;;;;20834898;28;19913;-77
2023/06/09 01:10:42;;;;;;;;;;;14.70;99.90;;;;;;20838307;28;19956;-76
2023/06/09 01:21:02;;;;;;;;;;;14.30;99.90;;;;;;20832009;28;20000;-77
2023/06/09 01:31:04;;;;;;;;;;;13.90;99.90;;;;;;20842003;28;19975;-77
2023/06/09 01:41:05;;;;;;;;;;;14.00;99.90;;;;;;20834373;28;19924;-77
2023/06/09 01:51:13;;;;;;;;;;;13.90;99.90;;;;;;20813564;28;20297;-77
2023/06/09 02:01:16;;;;;;;;;;;13.90;99.90;;;;;;20833357;28;19953;-78
2023/06/09 02:11:18;;;;;;;;;;;14.00;99.90;;;;;;20835322;28;20343;-75
2023/06/09 02:21:20;;;;;;;;;;;13.60;99.90;;;;;;20810745;28;19913;-76
2023/06/09 02:31:20;;;;;;;;;;;13.50;99.90;;;;;;20826443;28;20384;-75
2023/06/09 02:41:21;;;;;;;;;;;13.90;99.90;;;;;;20825395;28;20197;-75
2023/06/09 02:51:24;;;;;;;;;;;13.90;99.90;;;;;;20824659;28;20361;-75
2023/06/09 03:01:27;;;;;;;;;;;13.80;99.90;;;;;;20854017;28;19944;-75
2023/06/09 03:11:29;;;;;;;;;;;13.70;99.90;;;;;;20891084;28;19967;-74
2023/06/09 03:21:35;;;;;;;;;;;13.70;99.90;;;;;;20853799;28;20372;-76
2023/06/09 03:31:36;;;;;;;;;;;13.50;99.90;;;;;;20845513;28;20399;-76
2023/06/09 03:41:37;;;;;;;;;;;13.30;99.90;;;;;;20890252;28;19917;-75
2023/06/09 03:51:39;;;;;;;;;;;13.50;99.90;;;;;;20864896;28;19960;-75
2023/06/09 04:01:40;;;;;;;;;;;13.50;99.90;;;;;;20804918;28;19913;-75
2023/06/09 04:11:43;;;;;;;;;;;13.40;99.90;;;;;;20819440;28;19913;-74
2023/06/09 04:21:46;;;;;;;;;;;13.50;99.90;;;;;;20833303;28;20269;-75
2023/06/09 04:31:48;;;;;;;;;;;13.70;99.90;;;;;;20832666;28;19952;-75
2023/06/09 04:41:49;;;;;;;;;;;13.80;99.90;;;;;;20832160;28;19917;-75
2023/06/09 04:51:51;;;;;;;;;;;13.90;99.90;;;;;;20831837;28;19924;-75
2023/06/09 05:01:58;;;;;;;;;;;14.10;99.90;;;;;;20831527;28;19917;-75
2023/06/09 05:12:00;;;;;;;;;;;14.20;99.90;;;;;;20829656;28;19924;-75
2023/06/09 05:22:01;;;;;;;;;;;14.40;99.90;;;;;;20830683;28;19917;-76
2023/06/09 05:32:03;;;;;;;;;;;14.60;99.90;;;;;;20828487;28;19919;-75
2023/06/09 05:42:04;;;;;;;;;;;14.80;99.90;;;;;;20810790;28;19953;-74
2023/06/09 05:52:05;;;;;;;;;;;15.20;99.90;;;;;;20829145;28;19975;-74
2023/06/09 06:02:06;;;;;;;;;;;15.80;99.90;;;;;;20827646;28;20455;-76
2023/06/09 06:12:06;;;;;;;;;;;16.20;99.90;;;;;;20826019;28;19917;-75
2023/06/09 06:22:07;;;;;;;;;;;16.40;99.90;;;;;;20848026;28;19925;-76
2023/06/09 06:32:08;;;;;;;;;;;16.80;99.90;;;;;;20823972;28;19913;-76
2023/06/09 06:42:09;;;;;;;;;;;17.50;99.90;;;;;;20823552;28;19925;-76
2023/06/09 06:52:26;;;;;;;;;;;17.70;99.90;;;;;;20805765;28;20004;-75
2023/06/09 07:02:26;;;;;;;;;;;18.30;99.90;;;;;;20822595;28;19973;-75
2023/06/09 07:12:27;;;;;;;;;;;19.20;99.90;;;;;;20853546;28;19913;-76
2023/06/09 07:22:28;;;;;;;;;;;19.30;99.90;;;;;;20861355;28;19921;-76
2023/06/09 07:32:29;;;;;;;;;;;19.80;99.90;;;;;;20824341;28;19920;-74
2023/06/09 07:42:30;;;;;;;;;;;21.10;99.90;;;;;;20803722;28;20388;-75
2023/06/09 07:52:30;;;;;;;;;;;22.00;99.90;;;;;;20832625;28;19920;-76
2023/06/09 08:02:32;;;;;;;;;;;22.50;99.90;;;;;;20867191;28;20001;-78
2023/06/09 08:12:34;;;;;;;;;;;22.60;99.90;;;;;;20863454;28;19914;-77
2023/06/09 08:22:35;;;;;;;;;;;23.40;99.90;;;;;;20867350;28;19917;-77
2023/06/09 08:32:36;;;;;;;;;;;24.30;99.90;;;;;;20861180;28;19920;-77
2023/06/09 08:42:37;;;;;;;;;;;24.50;99.90;;;;;;20868961;28;19928;-76
2023/06/09 08:52:38;;;;;;;;;;;24.80;99.90;;;;;;20856993;28;19917;-77
2023/06/09 09:02:40;;;;;;;;;;;23.70;99.90;;;;;;20865663;28;20011;-77
2023/06/09 09:12:51;;;;;;;;;;;25.60;99.90;;;;;;20902176;28;19912;-77
2023/06/09 09:22:52;;;;;;;;;;;26.30;99.90;;;;;;20883348;28;20368;-77
2023/06/09 09:32:53;;;;;;;;;;;27.10;98.40;;;;;;20876374;28;19944;-77
2023/06/09 09:42:58;;;;;;;;;;;26.30;98.40;;;;;;20907743;28;20015;-77
2023/06/09 09:52:58;;;;;;;;;;;27.00;98.90;;;;;;20874324;28;20303;-79
2023/06/09 10:03:00;;;;;;;;;;;27.80;96.20;;;;;;20850570;28;20224;-79
2023/06/09 10:13:03;;;;;;;;;;;28.40;95.80;;;;;;20865780;28;19917;-78
2023/06/09 10:23:04;;;;;;;;;;;28.60;93.20;;;;;;20848857;28;20003;-77
2023/06/09 10:33:09;;;;;;;;;;;29.20;94.80;;;;;;20824175;28;19932;-77
2023/06/09 10:43:12;;;;;;;;;;;29.30;92.20;;;;;;20866145;28;19917;-77
2023/06/09 10:53:14;;;;;;;;;;;29.80;91.30;;;;;;20880025;28;20033;-77
2023/06/09 11:03:14;;;;;;;;;;;30.30;89.90;;;;;;20856965;28;20293;-77
2023/06/09 11:13:44;;;;;;;;;;;29.60;91.00;;;;;;20856997;28;20003;-76
2023/06/09 11:24:00;;;;;;;;;;;29.90;86.70;;;;;;20827002;28;20003;-76
2023/06/09 11:34:01;;;;;;;;;;;29.60;88.90;;;;;;20888501;28;20000;-79
2023/06/09 11:44:01;;;;;;;;;;;30.10;87.60;;;;;;20879166;28;19952;-76
2023/06/09 11:54:02;;;;;;;;;;;30.30;86.30;;;;;;20853071;28;19959;-77
2023/06/09 12:04:04;;;;;;;;;;;30.20;86.80;;;;;;20841640;28;20006;-77
2023/06/09 12:14:07;;;;;;;;;;;31.00;81.10;;;;;;20871741;28;19923;-77
2023/06/09 12:24:11;;;;;;;;;;;31.00;79.60;;;;;;20921020;28;19959;-75
2023/06/09 12:34:21;;;;;;;;;;;30.90;79.00;;;;;;20878536;28;19916;-76
2023/06/09 12:44:22;;;;;;;;;;;30.50;80.90;;;;;;20883760;28;19921;-77
2023/06/09 12:54:24;;;;;;;;;;;30.90;77.70;;;;;;20840376;28;19920;-75
2023/06/09 13:04:25;;;;;;;;;;;31.60;73.10;;;;;;20833460;28;20011;-76
2023/06/09 13:14:25;;;;;;;;;;;31.40;73.10;;;;;;20841942;28;19959;-77
2023/06/09 13:24:26;;;;;;;;;;;31.90;71.80;;;;;;20837591;28;19929;-79
2023/06/09 13:34:27;;;;;;;;;;;31.40;73.30;;;;;;20837608;28;20525;-78
2023/06/09 13:44:27;;;;;;;;;;;31.60;70.90;;;;;;20839671;28;20000;-79
2023/06/09 13:54:28;;;;;;;;;;;31.40;69.20;;;;;;20843004;28;19967;-79
2023/06/09 14:04:29;;;;;;;;;;;31.50;70.30;;;;;;20838704;28;20356;-79
2023/06/09 14:14:29;;;;;;;;;;;31.50;69.60;;;;;;20842210;28;19913;-80
2023/06/09 14:24:30;;;;;;;;;;;31.90;65.50;;;;;;20834583;28;19939;-78
2023/06/09 14:34:31;;;;;;;;;;;31.40;66.40;;;;;;20832263;28;20010;-77
2023/06/09 14:44:32;;;;;;;;;;;31.30;66.90;;;;;;20825533;28;19921;-77
2023/06/09 14:54:33;;;;;;;;;;;31.80;68.30;;;;;;20821038;28;19925;-77
2023/06/09 15:04:33;;;;;;;;;;;31.80;67.20;;;;;;20827652;28;19917;-77
2023/06/09 15:14:34;;;;;;;;;;;31.60;67.00;;;;;;20824168;28;19985;-77
2023/06/09 15:24:35;;;;;;;;;;;31.20;66.50;;;;;;20831391;28;19975;-77
2023/06/09 15:34:35;;;;;;;;;;;30.60;67.80;;;;;;20819854;28;19917;-77
2023/06/09 15:44:37;;;;;;;;;;;30.40;65.70;;;;;;20825053;28;19917;-77
2023/06/09 15:54:38;;;;;;;;;;;30.30;66.50;;;;;;20823960;28;19921;-77
2023/06/09 16:04:39;;;;;;;;;;;30.00;68.20;;;;;;20869613;28;19917;-77
2023/06/09 16:14:39;;;;;;;;;;;29.70;70.50;;;;;;20894604;28;19947;-76
2023/06/09 16:24:40;;;;;;;;;;;29.70;71.30;;;;;;20917276;28;20039;-75
2023/06/09 16:34:41;;;;;;;;;;;29.70;71.40;;;;;;20919678;28;19919;-76
2023/06/09 16:44:41;;;;;;;;;;;28.70;73.10;;;;;;20916041;28;19916;-76
2023/06/09 16:54:42;;;;;;;;;;;28.90;74.00;;;;;;20916760;28;19913;-77
2023/06/09 17:04:43;;;;;;;;;;;28.90;74.70;;;;;;20872307;28;19939;-75
2023/06/09 17:14:43;;;;;;;;;;;28.80;73.60;;;;;;20880360;28;19959;-76
2023/06/09 17:24:44;;;;;;;;;;;28.10;75.20;;;;;;20921836;28;19917;-75
2023/06/09 17:34:45;;;;;;;;;;;27.90;75.80;;;;;;20926595;28;19948;-77
2023/06/09 17:44:46;;;;;;;;;;;28.10;78.00;;;;;;20921140;28;19916;-77
2023/06/09 17:54:49;;;;;;;;;;;28.00;78.60;;;;;;20908994;28;19920;-77
2023/06/09 18:04:50;;;;;;;;;;;27.90;80.70;;;;;;20852412;28;19920;-77
2023/06/09 18:14:50;;;;;;;;;;;27.50;82.30;;;;;;20889011;28;20123;-78
2023/06/09 18:24:52;;;;;;;;;;;26.00;88.00;;;;;;20888181;28;19917;-78
2023/06/09 18:34:52;;;;;;;;;;;25.40;90.10;;;;;;20875149;28;19966;-77
2023/06/09 18:44:53;;;;;;;;;;;25.10;90.00;;;;;;20928147;28;20279;-78
2023/06/09 18:54:54;;;;;;;;;;;24.90;90.60;;;;;;20926218;28;19913;-77
2023/06/09 19:04:54;;;;;;;;;;;24.40;91.90;;;;;;20908638;28;19971;-76
2023/06/09 19:14:56;;;;;;;;;;;24.10;91.70;;;;;;20897483;28;19913;-76
2023/06/09 19:24:57;;;;;;;;;;;23.80;92.40;;;;;;20882151;28;19964;-77
2023/06/09 19:34:57;;;;;;;;;;;23.40;93.60;;;;;;20908281;28;19920;-77
2023/06/09 19:44:58;;;;;;;;;;;23.10;94.60;;;;;;20913374;28;19921;-77
2023/06/09 19:54:59;;;;;;;;;;;22.80;96.00;;;;;;20924587;28;19951;-76
2023/06/09 20:05:00;;;;;;;;;;;22.40;97.40;;;;;;20925305;28;19917;-76
2023/06/09 20:15:01;;;;;;;;;;;21.70;99.90;;;;;;20896333;28;19952;-76
2023/06/09 20:25:03;;;;;;;;;;;21.50;99.90;;;;;;20897695;28;20162;-77
2023/06/09 20:35:04;;;;;;;;;;;21.20;99.90;;;;;;20909483;28;19913;-77
2023/06/09 20:45:05;;;;;;;;;;;21.10;99.90;;;;;;20921282;28;20394;-76
2023/06/09 20:55:06;;;;;;;;;;;20.90;99.90;;;;;;20926111;28;20437;-76
2023/06/09 21:05:07;;;;;;;;;;;20.90;99.90;;;;;;20919335;28;19917;-76
2023/06/09 21:15:08;;;;;;;;;;;20.60;99.90;;;;;;20919142;28;19924;-77
2023/06/09 21:25:13;;;;;;;;;;;20.70;99.90;;;;;;20918604;28;19921;-77
2023/06/09 21:35:14;;;;;;;;;;;20.60;99.90;;;;;;20916190;28;19919;-76
2023/06/09 21:45:15;;;;;;;;;;;20.50;99.90;;;;;;20882840;28;20284;-76
2023/06/09 21:55:15;;;;;;;;;;;20.50;99.90;;;;;;20922234;28;20363;-75
2023/06/09 22:05:16;;;;;;;;;;;20.20;99.90;;;;;;20919816;28;19916;-75
2023/06/09 22:15:17;;;;;;;;;;;20.20;99.90;;;;;;20916643;28;19913;-77
2023/06/09 22:25:17;;;;;;;;;;;20.10;99.90;;;;;;20918170;28;19917;-75
2023/06/09 22:35:20;;;;;;;;;;;20.00;99.90;;;;;;20850561;28;19956;-76
2023/06/09 22:45:20;;;;;;;;;;;20.00;99.90;;;;;;20858529;28;19924;-75
2023/06/09 22:55:21;;;;;;;;;;;19.80;99.90;;;;;;20852733;28;19935;-76
2023/06/09 23:05:37;;;;;;;;;;;19.70;99.90;;;;;;20861764;28;20299;-77
2023/06/09 23:15:38;;;;;;;;;;;19.50;99.90;;;;;;20852948;28;19927;-77
2023/06/09 23:25:39;;;;;;;;;;;19.50;99.90;;;;;;20899901;28;19967;-76
2023/06/09 23:35:40;;;;;;;;;;;19.50;99.90;;;;;;20869365;28;19940;-77
2023/06/09 23:45:41;;;;;;;;;;;19.60;99.90;;;;;;20918289;28;19916;-77
2023/06/09 23:55:42;;;;;;;;;;;19.40;99.90;;;;;;20897972;28;20031;-77
